createdAt,value
2022-10-21T00:00:54.611Z,7.30
2022-10-21T00:03:21.669Z,7.08
2022-10-21T00:05:48.312Z,7.07
2022-10-21T00:08:15.323Z,7.10
2022-10-21T00:10:41.991Z,7.31
2022-10-21T00:13:08.611Z,6.92
2022-10-21T00:15:35.399Z,7.06
2022-10-21T00:18:01.873Z,7.10
2022-10-21T00:20:28.346Z,6.93
2022-10-21T00:22:54.843Z,6.72
2022-10-21T00:25:21.381Z,6.84
2022-10-21T00:27:47.849Z,6.64
2022-10-21T00:30:14.312Z,7.02
2022-10-21T00:32:40.971Z,6.34
2022-10-21T00:35:07.947Z,6.66
2022-10-21T00:37:34.376Z,6.33
2022-10-21T00:40:00.805Z,6.62
2022-10-21T00:42:35.291Z,6.64
2022-10-21T00:45:04.891Z,6.63
2022-10-21T00:47:42.917Z,7.08
2022-10-21T00:50:20.407Z,7.06
2022-10-21T00:52:46.910Z,6.62
2022-10-21T00:55:13.369Z,6.61
2022-10-21T00:57:40.422Z,6.92
2022-10-21T01:00:07.727Z,7.00
2022-10-21T01:02:34.263Z,7.17
2022-10-21T01:08:56.442Z,7.28
2022-10-21T01:11:25.057Z,7.31
2022-10-21T01:14:09.369Z,7.28
2022-10-21T01:16:50.909Z,7.00
2022-10-21T01:19:41.669Z,7.05
2022-10-21T01:22:36.003Z,6.95
2022-10-21T01:25:34.291Z,7.16
2022-10-21T01:28:28.373Z,7.16
2022-10-21T01:31:03.057Z,7.25
2022-10-21T01:34:07.711Z,7.34
2022-10-21T01:37:02.585Z,7.41
2022-10-21T01:39:41.468Z,7.53
2022-10-21T01:42:25.331Z,7.41
2022-10-21T01:45:00.644Z,7.51
2022-10-21T01:47:34.242Z,7.61
2022-10-21T01:50:07.442Z,7.41
2022-10-21T01:52:33.881Z,7.59
2022-10-21T01:55:08.661Z,7.53
2022-10-21T01:57:44.031Z,7.70
2022-10-21T02:00:10.953Z,7.74
2022-10-21T02:02:42.248Z,7.79
2022-10-21T02:05:15.226Z,7.45
2022-10-21T02:07:42.014Z,7.72
2022-10-21T02:10:08.799Z,7.69
2022-10-21T02:12:37.240Z,7.51
2022-10-21T02:15:07.947Z,7.61
2022-10-21T02:17:37.981Z,7.60
2022-10-21T02:20:09.205Z,7.58
2022-10-21T02:22:38.201Z,7.70
2022-10-21T02:25:08.008Z,7.66
2022-10-21T02:27:34.537Z,7.88
2022-10-21T02:30:01.997Z,7.76
2022-10-21T02:33:00.722Z,7.95
2022-10-21T02:36:03.937Z,7.61
2022-10-21T02:38:30.290Z,7.87
2022-10-21T02:41:06.478Z,7.95
2022-10-21T02:44:03.378Z,7.76
2022-10-21T02:46:41.929Z,7.98
2022-10-21T02:49:08.788Z,7.76
2022-10-21T02:51:35.550Z,7.67
2022-10-21T02:54:01.982Z,7.44
2022-10-21T02:58:59.750Z,7.74
2022-10-21T03:01:26.424Z,7.68
2022-10-21T03:03:52.912Z,7.64
2022-10-21T03:06:19.843Z,7.57
2022-10-21T03:08:46.338Z,7.79
2022-10-21T03:11:13.134Z,7.85
2022-10-21T03:13:39.539Z,7.63
2022-10-21T03:16:06.392Z,7.76
2022-10-21T03:18:32.891Z,7.86
2022-10-21T03:20:59.277Z,7.93
2022-10-21T03:23:25.711Z,7.96
2022-10-21T03:25:52.138Z,7.84
2022-10-21T03:28:18.589Z,7.63
2022-10-21T03:30:44.986Z,7.67
2022-10-21T03:33:11.408Z,7.82
2022-10-21T03:35:37.788Z,7.82
2022-10-21T03:38:04.186Z,8.03
2022-10-21T03:40:30.658Z,8.04
2022-10-21T03:42:57.869Z,7.85
2022-10-21T03:45:24.327Z,7.80
2022-10-21T03:47:51.989Z,7.84
2022-10-21T03:50:23.562Z,7.94
2022-10-21T03:52:52.190Z,7.58
2022-10-21T03:55:20.889Z,7.64
2022-10-21T03:57:48.178Z,7.42
2022-10-21T04:00:15.095Z,7.63
2022-10-21T04:02:41.914Z,7.27
2022-10-21T04:05:08.850Z,7.25
2022-10-21T04:07:35.308Z,7.23
2022-10-21T04:10:01.840Z,7.58
2022-10-21T04:12:28.235Z,7.75
2022-10-21T04:14:54.681Z,7.59
2022-10-21T04:17:21.131Z,7.62
2022-10-21T04:19:47.570Z,7.77
2022-10-21T04:22:13.990Z,7.68
2022-10-21T04:24:40.409Z,7.80
2022-10-21T04:27:06.837Z,7.70
2022-10-21T04:29:33.306Z,7.66
2022-10-21T04:31:59.728Z,7.65
2022-10-21T04:34:26.118Z,7.72
2022-10-21T04:36:52.577Z,7.83
2022-10-21T04:39:19.093Z,8.01
2022-10-21T04:41:45.753Z,7.87
2022-10-21T04:44:12.175Z,7.84
2022-10-21T04:46:38.556Z,7.95
2022-10-21T04:49:04.979Z,7.89
2022-10-21T04:54:02.767Z,7.92
2022-10-21T04:56:29.158Z,7.69
2022-10-21T04:58:55.569Z,7.84
2022-10-21T05:01:22.234Z,7.57
2022-10-21T05:03:48.675Z,7.64
2022-10-21T05:06:15.077Z,7.90
2022-10-21T05:08:41.500Z,7.97
2022-10-21T05:11:07.953Z,8.07
2022-10-21T05:13:34.353Z,7.87
2022-10-21T05:16:02.297Z,8.00
2022-10-21T05:18:29.580Z,8.18
2022-10-21T05:20:56.884Z,7.99
2022-10-21T05:23:24.040Z,7.64
2022-10-21T05:25:53.167Z,7.62
2022-10-21T05:28:20.355Z,7.52
2022-10-21T05:30:47.002Z,7.55
2022-10-21T05:33:13.575Z,7.68
2022-10-21T05:35:40.021Z,7.48
2022-10-21T05:38:06.773Z,7.51
2022-10-21T05:40:33.563Z,7.62
2022-10-21T05:43:00.088Z,7.63
2022-10-21T05:45:27.077Z,7.43
2022-10-21T05:47:53.511Z,7.43
2022-10-21T05:50:20.026Z,7.31
2022-10-21T05:52:46.407Z,7.29
2022-10-21T05:55:12.807Z,7.48
2022-10-21T05:57:39.333Z,7.28
2022-10-21T06:00:06.863Z,7.19
2022-10-21T06:02:33.565Z,7.19
2022-10-21T06:05:00.009Z,7.61
2022-10-21T06:07:26.468Z,7.48
2022-10-21T06:09:54.863Z,7.37
2022-10-21T06:12:22.022Z,7.50
2022-10-21T06:14:48.574Z,7.79
2022-10-21T06:17:14.961Z,7.92
2022-10-21T06:19:41.410Z,7.34
2022-10-21T06:22:07.819Z,7.77
2022-10-21T06:24:34.292Z,7.59
2022-10-21T06:27:00.936Z,7.45
2022-10-21T06:29:27.589Z,7.45
2022-10-21T06:31:54.042Z,7.65
2022-10-21T06:34:20.591Z,7.51
2022-10-21T06:36:47.004Z,7.58
2022-10-21T06:39:13.440Z,7.52
2022-10-21T06:41:39.862Z,7.46
2022-10-21T06:44:06.303Z,7.54
2022-10-21T06:46:32.771Z,7.43
2022-10-21T06:48:59.198Z,7.79
2022-10-21T06:51:25.815Z,7.72
2022-10-21T06:53:55.249Z,7.48
2022-10-21T06:56:22.775Z,7.59
2022-10-21T06:58:50.146Z,7.52
2022-10-21T07:01:34.445Z,7.63
2022-10-21T07:04:09.154Z,7.62
2022-10-21T07:06:35.975Z,7.91
2022-10-21T07:09:03.858Z,7.52
2022-10-21T07:11:30.404Z,7.65
2022-10-21T07:13:56.837Z,7.88
2022-10-21T07:16:28.891Z,7.56
2022-10-21T07:18:55.706Z,7.59
2022-10-21T07:21:24.365Z,7.76
2022-10-21T07:23:51.884Z,7.60
2022-10-21T07:26:20.315Z,7.75
2022-10-21T07:28:47.507Z,7.87
2022-10-21T07:31:15.611Z,7.83
2022-10-21T07:33:42.370Z,7.96
2022-10-21T07:36:11.411Z,8.05
2022-10-21T07:38:38.118Z,8.05
2022-10-21T07:41:05.465Z,8.23
2022-10-21T07:43:32.223Z,8.12
2022-10-21T07:46:01.824Z,8.36
2022-10-21T07:48:31.194Z,8.16
2022-10-21T07:51:11.149Z,8.21
2022-10-21T07:53:38.081Z,8.33
2022-10-21T07:56:13.560Z,8.26
2022-10-21T07:58:40.083Z,7.88
2022-10-21T08:01:08.996Z,8.30
2022-10-21T08:03:36.511Z,8.41
2022-10-21T08:06:03.800Z,8.26
2022-10-21T08:08:31.804Z,8.71
2022-10-21T08:10:58.474Z,8.80
2022-10-21T08:13:25.314Z,8.79
2022-10-21T08:15:54.315Z,8.38
2022-10-21T08:18:21.602Z,8.50
2022-10-21T08:20:49.195Z,8.86
2022-10-21T08:23:17.957Z,8.99
2022-10-21T08:25:55.330Z,9.69
2022-10-21T08:28:23.433Z,9.45
2022-10-21T08:30:50.036Z,9.96
2022-10-21T08:33:16.784Z,9.80
2022-10-21T08:35:43.659Z,9.53
2022-10-21T08:38:10.741Z,9.38
2022-10-21T08:40:41.685Z,9.63
2022-10-21T08:43:31.573Z,9.79
2022-10-21T08:46:09.883Z,9.86
2022-10-21T08:48:44.658Z,9.91
2022-10-21T08:51:24.037Z,10.38
2022-10-21T08:53:55.557Z,10.81
2022-10-21T08:58:52.579Z,9.82
2022-10-21T09:01:29.130Z,10.21
2022-10-21T09:04:15.690Z,10.34
2022-10-21T09:07:00.833Z,10.57
2022-10-21T09:09:51.898Z,10.13
2022-10-21T09:12:44.021Z,10.23
2022-10-21T09:15:25.817Z,10.26
2022-10-21T09:18:21.277Z,10.86
2022-10-21T09:21:05.859Z,12.41
2022-10-21T09:23:45.627Z,12.98
2022-10-21T09:26:44.680Z,13.79
2022-10-21T09:29:28.459Z,13.02
2022-10-21T09:32:26.050Z,13.69
2022-10-21T09:35:04.867Z,13.86
2022-10-21T09:37:43.342Z,13.49
2022-10-21T09:40:22.436Z,12.62
2022-10-21T09:42:51.542Z,12.20
2022-10-21T09:45:36.518Z,11.99
2022-10-21T09:48:05.899Z,12.07
2022-10-21T09:50:34.549Z,12.15
2022-10-21T09:53:16.213Z,12.05
2022-10-21T09:55:46.065Z,11.97
2022-10-21T09:59:08.148Z,12.12
2022-10-21T10:01:36.891Z,12.20
2022-10-21T10:04:20.558Z,12.96
2022-10-21T10:06:47.205Z,12.90
2022-10-21T10:09:32.826Z,13.67
2022-10-21T10:12:23.582Z,13.12
2022-10-21T10:14:50.382Z,12.91
2022-10-21T10:17:33.996Z,12.84
2022-10-21T10:20:13.963Z,13.20
2022-10-21T10:23:04.520Z,12.60
2022-10-21T10:25:34.213Z,12.82
2022-10-21T10:28:16.618Z,12.71
2022-10-21T10:30:42.999Z,12.76
2022-10-21T10:33:34.548Z,12.32
2022-10-21T10:36:09.462Z,12.32
2022-10-21T10:38:37.875Z,12.93
2022-10-21T10:41:35.678Z,13.23
2022-10-21T10:44:09.460Z,13.15
2022-10-21T10:46:38.120Z,13.62
2022-10-21T10:49:24.547Z,14.96
2022-10-21T10:52:07.415Z,15.30
2022-10-21T10:54:34.597Z,15.61
2022-10-21T10:57:04.075Z,15.46
2022-10-21T10:59:56.922Z,15.16
2022-10-21T11:02:48.574Z,13.83
2022-10-21T11:05:36.211Z,14.23
2022-10-21T11:08:21.787Z,14.70
2022-10-21T11:10:53.355Z,14.46
2022-10-21T11:13:22.599Z,14.13
2022-10-21T11:16:18.650Z,13.97
2022-10-21T11:18:56.673Z,13.29
2022-10-21T11:21:45.738Z,13.37
2022-10-21T11:24:42.649Z,13.69
2022-10-21T11:27:34.999Z,13.80
2022-10-21T11:30:17.613Z,13.67
2022-10-21T11:33:03.490Z,13.59
2022-10-21T11:35:35.927Z,13.31
2022-10-21T11:38:28.026Z,13.05
2022-10-21T11:43:56.589Z,13.38
2022-10-21T11:46:37.530Z,13.93
2022-10-21T11:49:28.987Z,12.86
2022-10-21T11:52:04.740Z,13.60
2022-10-21T11:54:44.551Z,13.16
2022-10-21T11:57:59.754Z,13.50
2022-10-21T12:00:27.637Z,13.70
2022-10-21T12:03:35.189Z,13.51
2022-10-21T12:06:03.835Z,13.86
2022-10-21T12:08:47.184Z,13.83
2022-10-21T12:11:21.384Z,13.98
2022-10-21T12:14:06.014Z,13.92
2022-10-21T12:16:35.463Z,13.67
2022-10-21T12:19:06.987Z,13.82
2022-10-21T12:21:39.107Z,13.08
2022-10-21T12:24:47.473Z,13.41
2022-10-21T12:27:39.451Z,13.06
2022-10-21T12:30:24.829Z,13.41
2022-10-21T12:33:17.788Z,13.08
2022-10-21T12:35:44.121Z,13.19
2022-10-21T12:38:21.503Z,13.20
2022-10-21T12:40:49.248Z,13.05
2022-10-21T12:43:22.286Z,13.27
2022-10-21T12:46:03.720Z,13.19
2022-10-21T12:49:22.816Z,13.06
2022-10-21T12:52:14.250Z,13.06
2022-10-21T12:54:40.603Z,12.91
2022-10-21T12:57:09.754Z,12.84
2022-10-21T12:59:37.578Z,12.92
2022-10-21T13:02:07.946Z,12.96
2022-10-21T13:04:34.434Z,13.07
2022-10-21T13:07:16.994Z,13.06
2022-10-21T13:10:05.969Z,12.90
2022-10-21T13:12:33.276Z,12.82
2022-10-21T13:15:06.200Z,12.98
2022-10-21T13:17:49.073Z,12.96
2022-10-21T13:20:15.460Z,12.92
2022-10-21T13:22:44.131Z,13.02
2022-10-21T13:25:16.768Z,13.00
2022-10-21T13:27:51.417Z,12.88
2022-10-21T13:30:30.330Z,12.93
2022-10-21T13:33:07.051Z,13.00
2022-10-21T13:35:43.447Z,13.11
2022-10-21T13:38:30.306Z,13.22
2022-10-21T13:41:22.833Z,13.07
2022-10-21T13:43:54.700Z,12.94
2022-10-21T13:46:23.907Z,13.08
2022-10-21T13:48:50.436Z,12.81
2022-10-21T13:51:25.854Z,12.73
2022-10-21T13:53:58.160Z,12.79
2022-10-21T13:56:33.805Z,12.73
2022-10-21T13:59:01.058Z,13.07
2022-10-21T14:01:30.711Z,12.50
2022-10-21T14:04:13.565Z,12.95
2022-10-21T14:06:45.458Z,12.65
2022-10-21T14:09:28.472Z,12.70
2022-10-21T14:12:03.250Z,12.56
2022-10-21T14:14:32.228Z,12.60
2022-10-21T14:17:07.978Z,12.77
2022-10-21T14:19:37.960Z,13.03
2022-10-21T14:24:43.859Z,12.98
2022-10-21T14:27:18.355Z,12.94
2022-10-21T14:29:45.543Z,12.60
2022-10-21T14:32:14.814Z,12.58
2022-10-21T14:35:13.791Z,12.79
2022-10-21T14:37:55.014Z,12.74
2022-10-21T14:40:40.276Z,12.68
2022-10-21T14:43:16.976Z,12.82
2022-10-21T14:45:52.354Z,12.38
2022-10-21T14:48:34.262Z,12.61
2022-10-21T14:51:05.842Z,12.45
2022-10-21T14:53:36.453Z,12.45
2022-10-21T14:56:06.651Z,12.57
2022-10-21T14:58:37.799Z,12.41
2022-10-21T15:01:13.954Z,12.62
2022-10-21T15:03:49.685Z,12.46
2022-10-21T15:06:32.678Z,12.35
2022-10-21T15:09:09.562Z,12.50
2022-10-21T15:11:39.586Z,12.44
2022-10-21T15:14:15.080Z,12.51
2022-10-21T15:16:59.941Z,12.31
2022-10-21T15:19:42.066Z,12.47
2022-10-21T15:22:24.442Z,12.41
2022-10-21T15:24:52.416Z,12.34
2022-10-21T15:27:42.186Z,12.65
2022-10-21T15:30:18.801Z,12.32
2022-10-21T15:32:46.502Z,12.35
2022-10-21T15:35:19.946Z,12.42
2022-10-21T15:37:50.886Z,12.52
2022-10-21T15:40:18.888Z,12.63
2022-10-21T15:42:46.262Z,12.72
2022-10-21T15:45:22.062Z,12.42
2022-10-21T15:47:53.992Z,12.59
2022-10-21T15:50:26.218Z,12.86
2022-10-21T15:52:53.271Z,12.75
2022-10-21T15:55:19.735Z,12.92
2022-10-21T15:57:46.134Z,12.66
2022-10-21T16:00:18.058Z,12.16
2022-10-21T16:02:46.192Z,12.25
2022-10-21T16:05:12.947Z,12.17
2022-10-21T16:07:40.343Z,12.33
2022-10-21T16:10:25.009Z,12.07
2022-10-21T16:12:52.162Z,11.99
2022-10-21T16:15:19.682Z,12.32
2022-10-21T16:17:49.205Z,12.54
2022-10-21T16:20:29.709Z,12.43
2022-10-21T16:23:00.511Z,12.41
2022-10-21T16:25:29.437Z,12.28
2022-10-21T16:27:56.636Z,12.16
2022-10-21T16:30:28.891Z,12.22
2022-10-21T16:32:57.088Z,12.08
2022-10-21T16:35:24.346Z,12.38
2022-10-21T16:37:51.047Z,12.23
2022-10-21T16:40:21.587Z,12.38
2022-10-21T16:42:49.256Z,12.16
2022-10-21T16:45:16.633Z,12.25
2022-10-21T16:47:48.215Z,12.42
2022-10-21T16:50:23.810Z,12.31
2022-10-21T16:52:50.308Z,12.12
2022-10-21T16:55:16.908Z,12.17
2022-10-21T16:57:43.625Z,12.35
2022-10-21T17:00:10.913Z,12.20
2022-10-21T17:02:40.142Z,12.21
2022-10-21T17:05:08.005Z,12.22
2022-10-21T17:07:34.629Z,12.20
2022-10-21T17:10:01.963Z,12.26
2022-10-21T17:12:28.724Z,12.31
2022-10-21T17:14:55.112Z,12.16
2022-10-21T17:17:22.267Z,12.12
2022-10-21T17:19:48.733Z,11.99
2022-10-21T17:22:19.503Z,12.17
2022-10-21T17:24:47.891Z,12.14
2022-10-21T17:27:18.730Z,12.08
2022-10-21T17:29:46.379Z,12.28
2022-10-21T17:32:13.049Z,12.21
2022-10-21T17:34:40.291Z,12.13
2022-10-21T17:37:08.531Z,12.22
2022-10-21T17:39:35.112Z,12.24
2022-10-21T17:42:02.078Z,12.24
2022-10-21T17:44:28.993Z,12.12
2022-10-21T17:46:55.513Z,12.13
2022-10-21T17:49:24.084Z,12.15
2022-10-21T17:51:50.976Z,12.07
2022-10-21T17:54:21.526Z,12.18
2022-10-21T17:56:51.797Z,12.26
2022-10-21T17:59:18.610Z,12.17
2022-10-21T18:01:45.224Z,12.31
2022-10-21T18:04:13.006Z,12.43
2022-10-21T18:06:39.958Z,12.40
2022-10-21T18:09:08.423Z,12.47
2022-10-21T18:11:36.416Z,12.61
2022-10-21T18:14:03.631Z,12.68
2022-10-21T18:16:30.126Z,12.54
2022-10-21T18:19:00.111Z,12.46
2022-10-21T18:21:29.342Z,12.37
2022-10-21T18:23:55.912Z,12.20
2022-10-21T18:26:28.336Z,12.38
2022-10-21T18:29:00.531Z,12.10
2022-10-21T18:31:29.881Z,12.22
2022-10-21T18:33:57.674Z,12.14
2022-10-21T18:36:25.129Z,12.13
2022-10-21T18:38:51.617Z,12.21
2022-10-21T18:41:21.016Z,12.41
2022-10-21T18:43:53.007Z,12.43
2022-10-21T18:46:20.627Z,12.54
2022-10-21T18:48:48.052Z,12.60
2022-10-21T18:51:18.958Z,12.56
2022-10-21T18:53:49.781Z,12.41
2022-10-21T18:56:20.092Z,12.64
2022-10-21T18:58:46.599Z,12.67
2022-10-21T19:01:15.099Z,12.75
2022-10-21T19:03:42.787Z,12.76
2022-10-21T19:06:29.882Z,12.75
2022-10-21T19:08:56.667Z,12.75
2022-10-21T19:11:23.222Z,12.69
2022-10-21T19:13:49.619Z,12.69
2022-10-21T19:16:16.037Z,12.59
2022-10-21T19:18:42.554Z,12.53
2022-10-21T19:21:08.942Z,12.38
2022-10-21T19:23:35.430Z,12.46
2022-10-21T19:26:07.155Z,12.47
2022-10-21T19:28:34.156Z,12.24
2022-10-21T19:31:00.998Z,12.40
2022-10-21T19:33:27.799Z,12.43
2022-10-21T19:35:54.204Z,12.47
2022-10-21T19:38:39.310Z,12.35
2022-10-21T19:41:09.889Z,12.45
2022-10-21T19:43:36.892Z,12.61
2022-10-21T19:46:08.028Z,12.70
2022-10-21T19:48:36.559Z,12.44
2022-10-21T19:51:03.690Z,12.67
2022-10-21T19:53:33.594Z,12.47
2022-10-21T19:56:04.790Z,12.61
2022-10-21T19:58:32.633Z,12.74
2022-10-21T20:01:04.976Z,12.72
2022-10-21T20:03:31.941Z,12.68
2022-10-21T20:05:58.378Z,12.68
2022-10-21T20:08:27.816Z,12.58
2022-10-21T20:11:05.987Z,12.81
2022-10-21T20:13:32.475Z,12.81
2022-10-21T20:16:00.056Z,12.81
2022-10-21T20:18:27.689Z,12.76
2022-10-21T20:20:55.073Z,12.73
2022-10-21T20:23:22.752Z,12.57
2022-10-21T20:25:58.180Z,12.52
2022-10-21T20:28:26.442Z,12.53
2022-10-21T20:31:03.922Z,12.49
2022-10-21T20:33:32.825Z,12.68
2022-10-21T20:36:04.438Z,12.76
2022-10-21T20:38:31.005Z,12.73
2022-10-21T20:41:06.096Z,12.63
2022-10-21T20:43:34.512Z,12.57
2022-10-21T20:46:02.523Z,12.66
2022-10-21T20:48:29.366Z,12.69
2022-10-21T20:51:04.615Z,12.68
2022-10-21T20:53:31.920Z,12.59
2022-10-21T20:55:59.622Z,12.66
2022-10-21T20:58:26.154Z,12.77
2022-10-21T21:00:52.725Z,12.64
2022-10-21T21:03:19.535Z,12.77
2022-10-21T21:05:46.080Z,12.54
2022-10-21T21:08:13.724Z,12.28
2022-10-21T21:10:40.323Z,12.16
2022-10-21T21:13:06.829Z,12.31
2022-10-21T21:15:33.285Z,12.18
2022-10-21T21:18:02.117Z,12.29
2022-10-21T21:20:28.583Z,12.27
2022-10-21T21:22:55.738Z,12.19
2022-10-21T21:25:22.138Z,12.26
2022-10-21T21:27:48.533Z,12.22
2022-10-21T21:30:14.970Z,12.20
2022-10-21T21:32:41.616Z,12.14
2022-10-21T21:35:08.765Z,12.19
2022-10-21T21:37:35.181Z,12.14
2022-10-21T21:40:01.644Z,12.25
2022-10-21T21:42:28.055Z,12.43
2022-10-21T21:44:54.477Z,12.56
2022-10-21T21:47:20.897Z,12.44
2022-10-21T21:49:47.267Z,12.59
2022-10-21T21:52:13.865Z,12.70
2022-10-21T21:54:40.285Z,12.62
2022-10-21T21:59:53.037Z,12.67
2022-10-21T22:02:19.503Z,12.59
2022-10-21T22:04:46.011Z,12.51
2022-10-21T22:07:12.755Z,12.44
2022-10-21T22:09:39.164Z,12.53
2022-10-21T22:12:05.762Z,12.70
2022-10-21T22:14:32.285Z,12.70
2022-10-21T22:16:58.682Z,12.56
2022-10-21T22:19:25.357Z,12.55
2022-10-21T22:21:51.773Z,12.51
2022-10-21T22:24:18.197Z,12.32
2022-10-21T22:26:44.654Z,12.32
2022-10-21T22:29:11.053Z,12.38
2022-10-21T22:31:37.489Z,12.50
2022-10-21T22:34:06.516Z,12.50
2022-10-21T22:36:35.585Z,12.59
2022-10-21T22:39:03.467Z,12.55
2022-10-21T22:41:29.915Z,12.48
2022-10-21T22:43:56.454Z,12.40
2022-10-21T22:46:34.308Z,12.37
2022-10-21T22:49:02.760Z,12.38
2022-10-21T22:51:29.215Z,12.31
2022-10-21T22:53:56.895Z,12.49
2022-10-21T22:56:25.096Z,12.52
2022-10-21T22:58:51.808Z,12.56
2022-10-21T23:01:18.364Z,12.59
2022-10-21T23:03:44.862Z,12.59
2022-10-21T23:06:11.321Z,12.61
2022-10-21T23:08:37.823Z,12.66
2022-10-21T23:11:04.459Z,12.77
2022-10-21T23:13:30.950Z,12.74
2022-10-21T23:15:57.425Z,12.75
2022-10-21T23:18:23.885Z,12.81
2022-10-21T23:20:50.266Z,12.74
2022-10-21T23:23:16.692Z,12.62
2022-10-21T23:25:43.164Z,12.62
2022-10-21T23:28:10.176Z,12.58
2022-10-21T23:30:37.588Z,12.76
2022-10-21T23:33:04.090Z,12.72
2022-10-21T23:35:30.565Z,12.72
2022-10-21T23:37:57.197Z,12.70
2022-10-21T23:40:23.586Z,12.67
2022-10-21T23:42:49.987Z,12.61
2022-10-21T23:45:16.769Z,12.60
2022-10-21T23:47:43.728Z,12.61
2022-10-21T23:50:10.771Z,12.58
2022-10-21T23:52:38.276Z,12.55
2022-10-21T23:55:06.513Z,12.53
2022-10-21T23:57:33.293Z,12.48
2022-10-21T23:59:59.923Z,12.50
